sensor_id;sensor_type;location;lat;lon;timestamp;temperature;humidity
40996;DHT22;26723;57.478;12.066;2022-11-23T00:00:02;3.60;99.90
40996;DHT22;26723;57.478;12.066;2022-11-23T00:03:13;3.60;99.90
40996;DHT22;26723;57.478;12.066;2022-11-23T00:06:23;3.60;99.90
40996;DHT22;26723;57.478;12.066;2022-11-23T00:09:32;3.60;99.90
40996;DHT22;26723;57.478;12.066;2022-11-23T00:12:40;3.60;99.90
40996;DHT22;26723;57.478;12.066;2022-11-23T00:15:49;3.60;99.90
40996;DHT22;26723;57.478;12.066;2022-11-23T00:19:00;3.60;99.90
40996;DHT22;26723;57.478;12.066;2022-11-23T00:22:08;3.60;99.90
40996;DHT22;26723;57.478;12.066;2022-11-23T00:25:17;3.60;99.90
40996;DHT22;26723;57.478;12.066;2022-11-23T00:28:25;3.60;99.90
40996;DHT22;26723;57.478;12.066;2022-11-23T00:31:33;3.60;99.90
40996;DHT22;26723;57.478;12.066;2022-11-23T00:34:43;3.60;99.90
40996;DHT22;26723;57.478;12.066;2022-11-23T00:37:51;3.60;99.90
40996;DHT22;26723;57.478;12.066;2022-11-23T00:41:01;3.60;99.90
40996;DHT22;26723;57.478;12.066;2022-11-23T00:44:10;3.70;99.90
40996;DHT22;26723;57.478;12.066;2022-11-23T00:47:18;3.70;99.90
40996;DHT22;26723;57.478;12.066;2022-11-23T00:50:28;3.60;99.90
40996;DHT22;26723;57.478;12.066;2022-11-23T00:53:36;3.70;99.90
40996;DHT22;26723;57.478;12.066;2022-11-23T00:56:45;3.70;99.90
40996;DHT22;26723;57.478;12.066;2022-11-23T00:59:53;3.70;99.90
40996;DHT22;26723;57.478;12.066;2022-11-23T01:03:03;3.70;99.90
40996;DHT22;26723;57.478;12.066;2022-11-23T01:06:14;3.70;99.90
40996;DHT22;26723;57.478;12.066;2022-11-23T01:09:24;3.70;99.90
40996;DHT22;26723;57.478;12.066;2022-11-23T01:12:32;3.70;99.90
40996;DHT22;26723;57.478;12.066;2022-11-23T01:15:48;3.80;99.90
40996;DHT22;26723;57.478;12.066;2022-11-23T01:18:57;3.80;99.90
40996;DHT22;26723;57.478;12.066;2022-11-23T01:22:07;3.80;99.90
40996;DHT22;26723;57.478;12.066;2022-11-23T01:25:16;3.80;99.90
40996;DHT22;26723;57.478;12.066;2022-11-23T01:28:24;3.80;99.90
40996;DHT22;26723;57.478;12.066;2022-11-23T01:31:33;3.90;99.90
40996;DHT22;26723;57.478;12.066;2022-11-23T01:34:41;3.80;99.90
40996;DHT22;26723;57.478;12.066;2022-11-23T01:37:51;3.90;99.90
40996;DHT22;26723;57.478;12.066;2022-11-23T01:40:59;3.90;99.90
40996;DHT22;26723;57.478;12.066;2022-11-23T01:44:28;3.90;99.90
40996;DHT22;26723;57.478;12.066;2022-11-23T01:47:36;3.90;99.90
40996;DHT22;26723;57.478;12.066;2022-11-23T01:50:48;3.90;99.90
40996;DHT22;26723;57.478;12.066;2022-11-23T01:54:02;3.90;99.90
40996;DHT22;26723;57.478;12.066;2022-11-23T01:57:15;3.90;99.90
40996;DHT22;26723;57.478;12.066;2022-11-23T02:00:24;3.90;99.90
40996;DHT22;26723;57.478;12.066;2022-11-23T02:03:33;3.90;99.90
40996;DHT22;26723;57.478;12.066;2022-11-23T02:06:47;4.00;99.90
40996;DHT22;26723;57.478;12.066;2022-11-23T02:09:57;3.90;99.90
40996;DHT22;26723;57.478;12.066;2022-11-23T02:13:09;4.00;99.90
40996;DHT22;26723;57.478;12.066;2022-11-23T02:16:18;4.00;99.90
40996;DHT22;26723;57.478;12.066;2022-11-23T02:19:33;4.00;99.90
40996;DHT22;26723;57.478;12.066;2022-11-23T02:22:49;4.00;99.90
40996;DHT22;26723;57.478;12.066;2022-11-23T02:26:05;4.00;99.90
40996;DHT22;26723;57.478;12.066;2022-11-23T02:29:17;4.00;99.90
40996;DHT22;26723;57.478;12.066;2022-11-23T02:32:28;4.00;99.90
40996;DHT22;26723;57.478;12.066;2022-11-23T02:35:47;4.10;99.90
40996;DHT22;26723;57.478;12.066;2022-11-23T02:38:58;4.00;99.90
40996;DHT22;26723;57.478;12.066;2022-11-23T02:42:08;4.10;99.90
40996;DHT22;26723;57.478;12.066;2022-11-23T02:45:23;4.00;99.90
40996;DHT22;26723;57.478;12.066;2022-11-23T02:48:33;4.10;99.90
40996;DHT22;26723;57.478;12.066;2022-11-23T02:51:42;4.00;99.90
40996;DHT22;26723;57.478;12.066;2022-11-23T02:54:51;4.00;99.90
40996;DHT22;26723;57.478;12.066;2022-11-23T02:58:00;4.00;99.90
40996;DHT22;26723;57.478;12.066;2022-11-23T03:01:09;4.10;99.90
40996;DHT22;26723;57.478;12.066;2022-11-23T03:04:17;4.00;99.90
40996;DHT22;26723;57.478;12.066;2022-11-23T03:07:33;4.10;99.90
40996;DHT22;26723;57.478;12.066;2022-11-23T03:10:42;4.00;99.90
40996;DHT22;26723;57.478;12.066;2022-11-23T03:13:52;4.00;99.90
40996;DHT22;26723;57.478;12.066;2022-11-23T03:17:01;4.00;99.90
40996;DHT22;26723;57.478;12.066;2022-11-23T03:20:14;4.00;99.90
40996;DHT22;26723;57.478;12.066;2022-11-23T03:23:25;4.00;99.90
40996;DHT22;26723;57.478;12.066;2022-11-23T03:26:34;4.00;99.90
40996;DHT22;26723;57.478;12.066;2022-11-23T03:29:50;3.90;99.90
40996;DHT22;26723;57.478;12.066;2022-11-23T03:33:00;4.00;99.90
40996;DHT22;26723;57.478;12.066;2022-11-23T03:36:08;4.00;99.90
40996;DHT22;26723;57.478;12.066;2022-11-23T03:39:21;3.90;99.90
40996;DHT22;26723;57.478;12.066;2022-11-23T03:42:29;3.90;99.90
40996;DHT22;26723;57.478;12.066;2022-11-23T03:45:39;3.90;99.90
40996;DHT22;26723;57.478;12.066;2022-11-23T03:48:48;3.90;99.90
40996;DHT22;26723;57.478;12.066;2022-11-23T03:51:57;3.90;99.90
40996;DHT22;26723;57.478;12.066;2022-11-23T03:55:07;3.80;99.90
40996;DHT22;26723;57.478;12.066;2022-11-23T03:58:15;3.80;99.90
40996;DHT22;26723;57.478;12.066;2022-11-23T04:01:26;3.80;99.90
40996;DHT22;26723;57.478;12.066;2022-11-23T04:04:40;3.80;99.90
40996;DHT22;26723;57.478;12.066;2022-11-23T04:08:11;3.80;99.90
40996;DHT22;26723;57.478;12.066;2022-11-23T04:11:19;3.80;99.90
40996;DHT22;26723;57.478;12.066;2022-11-23T04:14:28;3.80;99.90
40996;DHT22;26723;57.478;12.066;2022-11-23T04:17:39;3.70;99.90
40996;DHT22;26723;57.478;12.066;2022-11-23T04:20:48;3.70;99.90
40996;DHT22;26723;57.478;12.066;2022-11-23T04:23:58;3.70;99.90
40996;DHT22;26723;57.478;12.066;2022-11-23T04:27:09;3.70;99.90
40996;DHT22;26723;57.478;12.066;2022-11-23T04:30:18;3.60;99.90
40996;DHT22;26723;57.478;12.066;2022-11-23T04:33:28;3.70;99.90
40996;DHT22;26723;57.478;12.066;2022-11-23T04:36:38;3.70;99.90
40996;DHT22;26723;57.478;12.066;2022-11-23T04:39:47;3.60;99.90
40996;DHT22;26723;57.478;12.066;2022-11-23T04:42:59;3.70;99.90
40996;DHT22;26723;57.478;12.066;2022-11-23T04:46:11;3.70;99.90
40996;DHT22;26723;57.478;12.066;2022-11-23T04:49:22;3.70;99.90
40996;DHT22;26723;57.478;12.066;2022-11-23T04:52:30;3.60;99.90
40996;DHT22;26723;57.478;12.066;2022-11-23T04:55:39;3.70;99.90
40996;DHT22;26723;57.478;12.066;2022-11-23T04:58:49;3.70;99.90
40996;DHT22;26723;57.478;12.066;2022-11-23T05:01:57;3.70;99.90
40996;DHT22;26723;57.478;12.066;2022-11-23T05:05:30;3.70;99.90
40996;DHT22;26723;57.478;12.066;2022-11-23T05:08:39;3.70;99.90
40996;DHT22;26723;57.478;12.066;2022-11-23T05:12:03;3.70;99.90
40996;DHT22;26723;57.478;12.066;2022-11-23T05:15:12;3.70;99.90
40996;DHT22;26723;57.478;12.066;2022-11-23T05:18:21;3.70;99.90
40996;DHT22;26723;57.478;12.066;2022-11-23T05:21:31;3.70;99.90
40996;DHT22;26723;57.478;12.066;2022-11-23T05:24:40;3.80;99.90
40996;DHT22;26723;57.478;12.066;2022-11-23T05:27:55;3.80;99.90
40996;DHT22;26723;57.478;12.066;2022-11-23T05:31:17;3.80;99.90
40996;DHT22;26723;57.478;12.066;2022-11-23T05:34:26;3.80;99.90
40996;DHT22;26723;57.478;12.066;2022-11-23T05:37:36;3.80;99.90
40996;DHT22;26723;57.478;12.066;2022-11-23T05:40:47;3.90;99.90
40996;DHT22;26723;57.478;12.066;2022-11-23T05:43:56;3.90;99.90
40996;DHT22;26723;57.478;12.066;2022-11-23T05:47:07;3.90;99.90
40996;DHT22;26723;57.478;12.066;2022-11-23T05:50:17;3.90;99.90
40996;DHT22;26723;57.478;12.066;2022-11-23T05:53:27;3.90;99.90
40996;DHT22;26723;57.478;12.066;2022-11-23T05:56:43;3.90;99.90
40996;DHT22;26723;57.478;12.066;2022-11-23T05:59:59;3.90;99.90
40996;DHT22;26723;57.478;12.066;2022-11-23T06:03:18;3.90;99.90
40996;DHT22;26723;57.478;12.066;2022-11-23T06:06:26;3.90;99.90
40996;DHT22;26723;57.478;12.066;2022-11-23T06:09:36;3.90;99.90
40996;DHT22;26723;57.478;12.066;2022-11-23T06:12:48;4.00;99.90
40996;DHT22;26723;57.478;12.066;2022-11-23T06:15:58;4.00;99.90
40996;DHT22;26723;57.478;12.066;2022-11-23T06:19:16;4.00;99.90
40996;DHT22;26723;57.478;12.066;2022-11-23T06:22:24;4.00;99.90
40996;DHT22;26723;57.478;12.066;2022-11-23T06:25:40;4.00;99.90
40996;DHT22;26723;57.478;12.066;2022-11-23T06:28:54;4.00;99.90
40996;DHT22;26723;57.478;12.066;2022-11-23T06:32:03;4.00;99.90
40996;DHT22;26723;57.478;12.066;2022-11-23T06:35:14;3.90;99.90
40996;DHT22;26723;57.478;12.066;2022-11-23T06:38:23;3.90;99.90
40996;DHT22;26723;57.478;12.066;2022-11-23T06:41:42;3.90;99.90
40996;DHT22;26723;57.478;12.066;2022-11-23T06:44:51;3.90;99.90
40996;DHT22;26723;57.478;12.066;2022-11-23T06:48:01;3.90;99.90
40996;DHT22;26723;57.478;12.066;2022-11-23T06:51:12;3.90;99.90
40996;DHT22;26723;57.478;12.066;2022-11-23T06:54:22;3.90;99.90
40996;DHT22;26723;57.478;12.066;2022-11-23T06:57:36;3.90;99.90
40996;DHT22;26723;57.478;12.066;2022-11-23T07:00:44;3.90;99.90
40996;DHT22;26723;57.478;12.066;2022-11-23T07:03:53;3.90;99.90
40996;DHT22;26723;57.478;12.066;2022-11-23T07:07:09;3.90;99.90
40996;DHT22;26723;57.478;12.066;2022-11-23T07:10:24;3.90;99.90
40996;DHT22;26723;57.478;12.066;2022-11-23T07:13:38;3.90;99.90
40996;DHT22;26723;57.478;12.066;2022-11-23T07:16:46;3.90;99.90
40996;DHT22;26723;57.478;12.066;2022-11-23T07:19:55;3.90;99.90
40996;DHT22;26723;57.478;12.066;2022-11-23T07:23:04;3.90;99.90
40996;DHT22;26723;57.478;12.066;2022-11-23T07:26:13;3.90;99.90
40996;DHT22;26723;57.478;12.066;2022-11-23T07:29:23;4.00;99.90
40996;DHT22;26723;57.478;12.066;2022-11-23T07:32:31;4.00;99.90
40996;DHT22;26723;57.478;12.066;2022-11-23T07:35:40;3.90;99.90
40996;DHT22;26723;57.478;12.066;2022-11-23T07:38:49;4.00;99.90
40996;DHT22;26723;57.478;12.066;2022-11-23T07:41:59;4.00;99.90
40996;DHT22;26723;57.478;12.066;2022-11-23T07:45:29;3.90;99.90
40996;DHT22;26723;57.478;12.066;2022-11-23T07:48:39;4.00;99.90
40996;DHT22;26723;57.478;12.066;2022-11-23T07:51:47;4.00;99.90
40996;DHT22;26723;57.478;12.066;2022-11-23T07:54:55;4.00;99.90
40996;DHT22;26723;57.478;12.066;2022-11-23T07:58:06;4.00;99.90
40996;DHT22;26723;57.478;12.066;2022-11-23T08:01:16;4.00;99.90
40996;DHT22;26723;57.478;12.066;2022-11-23T08:04:25;4.00;99.90
40996;DHT22;26723;57.478;12.066;2022-11-23T08:07:33;4.00;99.90
40996;DHT22;26723;57.478;12.066;2022-11-23T08:10:42;4.00;99.90
40996;DHT22;26723;57.478;12.066;2022-11-23T08:13:58;4.00;99.90
40996;DHT22;26723;57.478;12.066;2022-11-23T08:17:08;4.00;99.90
40996;DHT22;26723;57.478;12.066;2022-11-23T08:20:16;4.10;99.90
40996;DHT22;26723;57.478;12.066;2022-11-23T08:23:25;4.10;99.90
40996;DHT22;26723;57.478;12.066;2022-11-23T08:26:33;4.10;99.90
40996;DHT22;26723;57.478;12.066;2022-11-23T08:29:42;4.10;99.90
40996;DHT22;26723;57.478;12.066;2022-11-23T08:32:51;4.10;99.90
40996;DHT22;26723;57.478;12.066;2022-11-23T08:36:02;4.20;99.90
40996;DHT22;26723;57.478;12.066;2022-11-23T08:39:11;4.10;99.90
40996;DHT22;26723;57.478;12.066;2022-11-23T08:42:20;4.10;99.90
40996;DHT22;26723;57.478;12.066;2022-11-23T08:45:29;4.20;99.90
40996;DHT22;26723;57.478;12.066;2022-11-23T08:48:38;4.20;99.90
40996;DHT22;26723;57.478;12.066;2022-11-23T08:51:47;4.20;99.90
40996;DHT22;26723;57.478;12.066;2022-11-23T08:54:56;4.20;99.90
40996;DHT22;26723;57.478;12.066;2022-11-23T08:58:04;4.20;99.90
40996;DHT22;26723;57.478;12.066;2022-11-23T09:01:19;4.20;99.90
40996;DHT22;26723;57.478;12.066;2022-11-23T09:04:29;4.20;99.90
40996;DHT22;26723;57.478;12.066;2022-11-23T09:07:38;4.30;99.90
40996;DHT22;26723;57.478;12.066;2022-11-23T09:10:46;4.30;99.90
40996;DHT22;26723;57.478;12.066;2022-11-23T09:13:55;4.30;99.90
40996;DHT22;26723;57.478;12.066;2022-11-23T09:17:03;4.30;99.90
40996;DHT22;26723;57.478;12.066;2022-11-23T09:20:13;4.30;99.90
40996;DHT22;26723;57.478;12.066;2022-11-23T09:23:22;4.30;99.90
40996;DHT22;26723;57.478;12.066;2022-11-23T09:26:32;4.40;99.90
40996;DHT22;26723;57.478;12.066;2022-11-23T09:29:41;4.30;99.90
40996;DHT22;26723;57.478;12.066;2022-11-23T09:32:49;4.40;99.90
40996;DHT22;26723;57.478;12.066;2022-11-23T09:36:00;4.40;99.90
40996;DHT22;26723;57.478;12.066;2022-11-23T09:39:10;4.40;99.90
40996;DHT22;26723;57.478;12.066;2022-11-23T09:42:33;4.40;99.90
40996;DHT22;26723;57.478;12.066;2022-11-23T09:45:48;4.40;99.90
40996;DHT22;26723;57.478;12.066;2022-11-23T09:49:12;4.40;99.90
40996;DHT22;26723;57.478;12.066;2022-11-23T09:52:24;4.40;99.90
40996;DHT22;26723;57.478;12.066;2022-11-23T09:55:36;4.50;99.90
40996;DHT22;26723;57.478;12.066;2022-11-23T09:58:50;4.40;99.90
40996;DHT22;26723;57.478;12.066;2022-11-23T10:02:00;4.40;99.90
40996;DHT22;26723;57.478;12.066;2022-11-23T10:05:14;4.50;99.90
40996;DHT22;26723;57.478;12.066;2022-11-23T10:08:34;4.50;99.90
40996;DHT22;26723;57.478;12.066;2022-11-23T10:12:02;4.50;99.90
40996;DHT22;26723;57.478;12.066;2022-11-23T10:15:19;4.50;99.90
40996;DHT22;26723;57.478;12.066;2022-11-23T10:18:35;4.50;99.90
40996;DHT22;26723;57.478;12.066;2022-11-23T10:21:53;4.60;99.90
40996;DHT22;26723;57.478;12.066;2022-11-23T10:25:11;4.60;99.90
40996;DHT22;26723;57.478;12.066;2022-11-23T10:28:21;4.60;99.90
40996;DHT22;26723;57.478;12.066;2022-11-23T10:31:30;4.60;99.90
40996;DHT22;26723;57.478;12.066;2022-11-23T10:34:47;4.70;99.90
40996;DHT22;26723;57.478;12.066;2022-11-23T10:38:08;4.60;99.90
40996;DHT22;26723;57.478;12.066;2022-11-23T10:41:26;4.70;99.90
40996;DHT22;26723;57.478;12.066;2022-11-23T10:44:37;4.60;99.90
40996;DHT22;26723;57.478;12.066;2022-11-23T10:47:49;4.70;99.90
40996;DHT22;26723;57.478;12.066;2022-11-23T10:51:14;4.70;99.90
40996;DHT22;26723;57.478;12.066;2022-11-23T10:54:29;4.70;99.90
40996;DHT22;26723;57.478;12.066;2022-11-23T10:57:44;4.70;99.90
40996;DHT22;26723;57.478;12.066;2022-11-23T11:01:00;4.70;99.90
40996;DHT22;26723;57.478;12.066;2022-11-23T11:04:21;4.70;99.90
40996;DHT22;26723;57.478;12.066;2022-11-23T11:07:30;4.70;99.90
40996;DHT22;26723;57.478;12.066;2022-11-23T11:10:40;4.70;99.90
40996;DHT22;26723;57.478;12.066;2022-11-23T11:14:00;4.70;99.90
40996;DHT22;26723;57.478;12.066;2022-11-23T11:17:24;4.70;99.90
40996;DHT22;26723;57.478;12.066;2022-11-23T11:20:34;4.80;99.90
40996;DHT22;26723;57.478;12.066;2022-11-23T11:23:50;4.80;99.90
40996;DHT22;26723;57.478;12.066;2022-11-23T11:27:02;4.70;99.90
40996;DHT22;26723;57.478;12.066;2022-11-23T11:30:21;4.80;99.90
40996;DHT22;26723;57.478;12.066;2022-11-23T11:33:36;4.70;99.90
40996;DHT22;26723;57.478;12.066;2022-11-23T11:36:53;4.80;99.90
40996;DHT22;26723;57.478;12.066;2022-11-23T11:40:09;4.80;99.90
40996;DHT22;26723;57.478;12.066;2022-11-23T11:43:21;4.80;99.90
40996;DHT22;26723;57.478;12.066;2022-11-23T11:46:48;4.80;99.90
40996;DHT22;26723;57.478;12.066;2022-11-23T11:50:05;4.80;99.90
40996;DHT22;26723;57.478;12.066;2022-11-23T11:53:22;4.80;99.90
40996;DHT22;26723;57.478;12.066;2022-11-23T11:56:35;4.80;99.90
40996;DHT22;26723;57.478;12.066;2022-11-23T11:59:48;4.80;99.90
40996;DHT22;26723;57.478;12.066;2022-11-23T12:03:05;4.90;99.90
40996;DHT22;26723;57.478;12.066;2022-11-23T12:06:22;4.90;99.90
40996;DHT22;26723;57.478;12.066;2022-11-23T12:09:36;4.90;99.90
40996;DHT22;26723;57.478;12.066;2022-11-23T12:12:46;4.90;99.90
40996;DHT22;26723;57.478;12.066;2022-11-23T12:16:00;4.90;99.90
40996;DHT22;26723;57.478;12.066;2022-11-23T12:19:17;4.90;99.90
40996;DHT22;26723;57.478;12.066;2022-11-23T12:22:35;4.90;99.90
40996;DHT22;26723;57.478;12.066;2022-11-23T12:25:50;4.90;99.90
40996;DHT22;26723;57.478;12.066;2022-11-23T12:29:25;4.90;99.90
40996;DHT22;26723;57.478;12.066;2022-11-23T12:32:47;4.90;99.90
40996;DHT22;26723;57.478;12.066;2022-11-23T12:36:12;4.90;99.90
40996;DHT22;26723;57.478;12.066;2022-11-23T12:39:47;4.90;99.90
40996;DHT22;26723;57.478;12.066;2022-11-23T12:43:03;4.90;99.90
40996;DHT22;26723;57.478;12.066;2022-11-23T12:46:17;4.90;99.90
40996;DHT22;26723;57.478;12.066;2022-11-23T12:49:35;5.00;99.90
40996;DHT22;26723;57.478;12.066;2022-11-23T12:52:57;4.90;99.90
40996;DHT22;26723;57.478;12.066;2022-11-23T12:56:12;4.90;99.90
40996;DHT22;26723;57.478;12.066;2022-11-23T12:59:22;4.90;99.90
40996;DHT22;26723;57.478;12.066;2022-11-23T13:03:11;4.90;99.90
40996;DHT22;26723;57.478;12.066;2022-11-23T13:07:05;4.90;99.90
40996;DHT22;26723;57.478;12.066;2022-11-23T13:10:45;5.00;99.90
40996;DHT22;26723;57.478;12.066;2022-11-23T13:14:09;4.90;99.90
40996;DHT22;26723;57.478;12.066;2022-11-23T13:17:28;5.00;99.90
40996;DHT22;26723;57.478;12.066;2022-11-23T13:20:54;5.00;99.90
40996;DHT22;26723;57.478;12.066;2022-11-23T13:24:24;5.00;99.90
40996;DHT22;26723;57.478;12.066;2022-11-23T13:27:43;5.00;99.90
40996;DHT22;26723;57.478;12.066;2022-11-23T13:31:21;5.00;99.90
40996;DHT22;26723;57.478;12.066;2022-11-23T13:34:44;5.00;99.90
40996;DHT22;26723;57.478;12.066;2022-11-23T13:38:21;5.00;99.90
40996;DHT22;26723;57.478;12.066;2022-11-23T13:41:55;5.00;99.90
40996;DHT22;26723;57.478;12.066;2022-11-23T13:45:28;5.00;99.90
40996;DHT22;26723;57.478;12.066;2022-11-23T13:48:42;5.00;99.90
40996;DHT22;26723;57.478;12.066;2022-11-23T13:52:22;5.00;99.90
40996;DHT22;26723;57.478;12.066;2022-11-23T13:55:33;5.00;99.90
40996;DHT22;26723;57.478;12.066;2022-11-23T13:58:50;5.00;99.90
40996;DHT22;26723;57.478;12.066;2022-11-23T14:02:22;5.00;99.90
40996;DHT22;26723;57.478;12.066;2022-11-23T14:05:57;5.00;99.90
40996;DHT22;26723;57.478;12.066;2022-11-23T14:09:14;5.00;99.90
40996;DHT22;26723;57.478;12.066;2022-11-23T14:12:31;5.00;99.90
40996;DHT22;26723;57.478;12.066;2022-11-23T14:15:43;5.00;99.90
40996;DHT22;26723;57.478;12.066;2022-11-23T14:19:04;5.00;99.90
40996;DHT22;26723;57.478;12.066;2022-11-23T14:22:22;4.90;99.90
40996;DHT22;26723;57.478;12.066;2022-11-23T14:25:43;5.00;99.90
40996;DHT22;26723;57.478;12.066;2022-11-23T14:29:13;5.00;99.90
40996;DHT22;26723;57.478;12.066;2022-11-23T14:32:38;5.00;99.90
40996;DHT22;26723;57.478;12.066;2022-11-23T14:35:59;5.00;99.90
40996;DHT22;26723;57.478;12.066;2022-11-23T14:39:47;5.00;99.90
40996;DHT22;26723;57.478;12.066;2022-11-23T14:43:00;5.00;99.90
40996;DHT22;26723;57.478;12.066;2022-11-23T14:46:14;5.00;99.90
40996;DHT22;26723;57.478;12.066;2022-11-23T14:49:23;4.90;99.90
40996;DHT22;26723;57.478;12.066;2022-11-23T14:52:34;5.00;99.90
40996;DHT22;26723;57.478;12.066;2022-11-23T14:55:46;4.90;99.90
40996;DHT22;26723;57.478;12.066;2022-11-23T14:59:00;5.00;99.90
40996;DHT22;26723;57.478;12.066;2022-11-23T15:02:16;4.90;99.90
40996;DHT22;26723;57.478;12.066;2022-11-23T15:05:28;4.90;99.90
40996;DHT22;26723;57.478;12.066;2022-11-23T15:08:44;4.90;99.90
40996;DHT22;26723;57.478;12.066;2022-11-23T15:12:05;4.90;99.90
40996;DHT22;26723;57.478;12.066;2022-11-23T15:15:17;4.90;99.90
40996;DHT22;26723;57.478;12.066;2022-11-23T15:18:28;5.00;99.90
40996;DHT22;26723;57.478;12.066;2022-11-23T15:21:36;4.90;99.90
40996;DHT22;26723;57.478;12.066;2022-11-23T15:24:47;4.90;99.90
40996;DHT22;26723;57.478;12.066;2022-11-23T15:27:56;4.90;99.90
40996;DHT22;26723;57.478;12.066;2022-11-23T15:31:26;4.90;99.90
40996;DHT22;26723;57.478;12.066;2022-11-23T15:34:36;4.90;99.90
40996;DHT22;26723;57.478;12.066;2022-11-23T15:37:46;4.90;99.90
40996;DHT22;26723;57.478;12.066;2022-11-23T15:40:56;4.90;99.90
40996;DHT22;26723;57.478;12.066;2022-11-23T15:44:15;4.90;99.90
40996;DHT22;26723;57.478;12.066;2022-11-23T15:47:26;4.90;99.90
40996;DHT22;26723;57.478;12.066;2022-11-23T15:50:42;4.90;99.90
40996;DHT22;26723;57.478;12.066;2022-11-23T15:53:52;4.90;99.90
40996;DHT22;26723;57.478;12.066;2022-11-23T15:57:06;4.90;99.90
40996;DHT22;26723;57.478;12.066;2022-11-23T16:00:21;4.90;99.90
40996;DHT22;26723;57.478;12.066;2022-11-23T16:03:40;4.90;99.90
40996;DHT22;26723;57.478;12.066;2022-11-23T16:06:48;4.90;99.90
40996;DHT22;26723;57.478;12.066;2022-11-23T16:10:18;4.90;99.90
40996;DHT22;26723;57.478;12.066;2022-11-23T16:13:36;4.90;99.90
40996;DHT22;26723;57.478;12.066;2022-11-23T16:16:45;4.90;99.90
40996;DHT22;26723;57.478;12.066;2022-11-23T16:19:55;4.90;99.90
40996;DHT22;26723;57.478;12.066;2022-11-23T16:23:04;4.90;99.90
40996;DHT22;26723;57.478;12.066;2022-11-23T16:26:13;4.80;99.90
40996;DHT22;26723;57.478;12.066;2022-11-23T16:29:24;4.90;99.90
40996;DHT22;26723;57.478;12.066;2022-11-23T16:32:33;4.80;99.90
40996;DHT22;26723;57.478;12.066;2022-11-23T16:35:41;4.80;99.90
40996;DHT22;26723;57.478;12.066;2022-11-23T16:38:50;4.90;99.90
40996;DHT22;26723;57.478;12.066;2022-11-23T16:41:58;4.80;99.90
40996;DHT22;26723;57.478;12.066;2022-11-23T16:45:09;4.80;99.90
40996;DHT22;26723;57.478;12.066;2022-11-23T16:48:36;4.80;99.90
40996;DHT22;26723;57.478;12.066;2022-11-23T16:51:46;4.80;99.90
40996;DHT22;26723;57.478;12.066;2022-11-23T16:55:03;4.80;99.90
40996;DHT22;26723;57.478;12.066;2022-11-23T16:58:13;4.80;99.90
40996;DHT22;26723;57.478;12.066;2022-11-23T17:01:25;4.80;99.90
40996;DHT22;26723;57.478;12.066;2022-11-23T17:04:33;4.80;99.90
40996;DHT22;26723;57.478;12.066;2022-11-23T17:07:43;4.80;99.90
40996;DHT22;26723;57.478;12.066;2022-11-23T17:10:51;4.80;99.90
40996;DHT22;26723;57.478;12.066;2022-11-23T17:14:00;4.80;99.90
40996;DHT22;26723;57.478;12.066;2022-11-23T17:17:19;4.80;99.90
40996;DHT22;26723;57.478;12.066;2022-11-23T17:20:28;4.80;99.90
40996;DHT22;26723;57.478;12.066;2022-11-23T17:23:36;4.80;99.90
40996;DHT22;26723;57.478;12.066;2022-11-23T17:26:49;4.80;99.90
40996;DHT22;26723;57.478;12.066;2022-11-23T17:30:00;4.80;99.90
40996;DHT22;26723;57.478;12.066;2022-11-23T17:33:11;4.80;99.90
40996;DHT22;26723;57.478;12.066;2022-11-23T17:36:19;4.80;99.90
40996;DHT22;26723;57.478;12.066;2022-11-23T17:39:28;4.80;99.90
40996;DHT22;26723;57.478;12.066;2022-11-23T17:42:37;4.80;99.90
40996;DHT22;26723;57.478;12.066;2022-11-23T17:45:45;4.80;99.90
40996;DHT22;26723;57.478;12.066;2022-11-23T17:48:57;4.80;99.90
40996;DHT22;26723;57.478;12.066;2022-11-23T17:52:09;4.80;99.90
40996;DHT22;26723;57.478;12.066;2022-11-23T17:55:18;4.80;99.90
40996;DHT22;26723;57.478;12.066;2022-11-23T17:58:26;4.80;99.90
40996;DHT22;26723;57.478;12.066;2022-11-23T18:01:35;4.80;99.90
40996;DHT22;26723;57.478;12.066;2022-11-23T18:04:46;4.80;99.90
40996;DHT22;26723;57.478;12.066;2022-11-23T18:07:54;4.80;99.90
40996;DHT22;26723;57.478;12.066;2022-11-23T18:11:03;4.80;99.90
40996;DHT22;26723;57.478;12.066;2022-11-23T18:14:12;4.80;99.90
40996;DHT22;26723;57.478;12.066;2022-11-23T18:17:20;4.80;99.90
40996;DHT22;26723;57.478;12.066;2022-11-23T18:20:31;4.80;99.90
40996;DHT22;26723;57.478;12.066;2022-11-23T18:23:39;4.80;99.90
40996;DHT22;26723;57.478;12.066;2022-11-23T18:26:48;4.80;99.90
40996;DHT22;26723;57.478;12.066;2022-11-23T18:29:56;4.80;99.90
40996;DHT22;26723;57.478;12.066;2022-11-23T18:33:05;4.80;99.90
40996;DHT22;26723;57.478;12.066;2022-11-23T18:36:15;4.80;99.90
40996;DHT22;26723;57.478;12.066;2022-11-23T18:39:23;4.80;99.90
40996;DHT22;26723;57.478;12.066;2022-11-23T18:42:31;4.80;99.90
40996;DHT22;26723;57.478;12.066;2022-11-23T18:45:40;4.80;99.90
40996;DHT22;26723;57.478;12.066;2022-11-23T18:48:49;4.80;99.90
40996;DHT22;26723;57.478;12.066;2022-11-23T18:51:59;4.80;99.90
40996;DHT22;26723;57.478;12.066;2022-11-23T18:55:07;4.80;99.90
40996;DHT22;26723;57.478;12.066;2022-11-23T18:58:16;4.80;99.90
40996;DHT22;26723;57.478;12.066;2022-11-23T19:01:24;4.80;99.90
40996;DHT22;26723;57.478;12.066;2022-11-23T19:04:33;4.80;99.90
40996;DHT22;26723;57.478;12.066;2022-11-23T19:07:42;4.80;99.90
40996;DHT22;26723;57.478;12.066;2022-11-23T19:10:51;4.80;99.90
40996;DHT22;26723;57.478;12.066;2022-11-23T19:13:59;4.70;99.90
40996;DHT22;26723;57.478;12.066;2022-11-23T19:17:08;4.80;99.90
40996;DHT22;26723;57.478;12.066;2022-11-23T19:20:17;4.80;99.90
40996;DHT22;26723;57.478;12.066;2022-11-23T19:23:27;4.80;99.90
40996;DHT22;26723;57.478;12.066;2022-11-23T19:26:36;4.70;99.90
40996;DHT22;26723;57.478;12.066;2022-11-23T19:29:44;4.70;99.90
40996;DHT22;26723;57.478;12.066;2022-11-23T19:32:52;4.70;99.90
40996;DHT22;26723;57.478;12.066;2022-11-23T19:36:04;4.70;99.90
40996;DHT22;26723;57.478;12.066;2022-11-23T19:39:14;4.70;99.90
40996;DHT22;26723;57.478;12.066;2022-11-23T19:42:22;4.70;99.90
40996;DHT22;26723;57.478;12.066;2022-11-23T19:45:30;4.70;99.90
40996;DHT22;26723;57.478;12.066;2022-11-23T19:48:39;4.70;99.90
40996;DHT22;26723;57.478;12.066;2022-11-23T19:51:48;4.70;99.90
40996;DHT22;26723;57.478;12.066;2022-11-23T19:54:59;4.70;99.90
40996;DHT22;26723;57.478;12.066;2022-11-23T19:58:08;4.70;99.90
40996;DHT22;26723;57.478;12.066;2022-11-23T20:01:18;4.70;99.90
40996;DHT22;26723;57.478;12.066;2022-11-23T20:04:26;4.70;99.90
40996;DHT22;26723;57.478;12.066;2022-11-23T20:07:35;4.70;99.90
40996;DHT22;26723;57.478;12.066;2022-11-23T20:10:45;4.70;99.90
40996;DHT22;26723;57.478;12.066;2022-11-23T20:13:53;4.70;99.90
40996;DHT22;26723;57.478;12.066;2022-11-23T20:17:02;4.70;99.90